Gujranwala Weather



Gujranwala's Current Weather

Temprature 27.15o clear sky

clear sky

Rain: 0 %

Min Temprature27.15o
Max Temprature27.15o
Humidity70
Wind Speed2.6 m/h
Sun Rise05:32:31
Sun Set18:39:57
Current Time: 23-Aug-2019 06:11:11
Lat/Lon: 32.15, 74.19




Gujranwala's Geo Location



Gujranwala's Weather Forecast

Time Overall Temp Min Temp Max Temp Humidity Wind Speed Rain
23-Aug-2019 (Fri)
08:00:00 clear sky 30.960 30.957 30.960 57 2.42 m/h 0 %
11:00:00 clear sky 36.750 36.750 36.750 36 2.37 m/h 0 %
14:00:00 clear sky 39.830 39.830 39.831 26 2.9 m/h 0 %
17:00:00 clear sky 38.810 38.810 38.811 26 3.98 m/h 0 %
20:00:00 clear sky 33.250 33.250 33.250 37 3.46 m/h 0 %
23:00:00 clear sky 30.542 30.542 30.542 47 3.1 m/h 0 %
24-Aug-2019 (Sat)
02:00:00 clear sky 29.331 29.331 29.331 51 2.29 m/h 0 %
05:00:00 clear sky 28.255 28.255 28.255 55 2.04 m/h 0 %
08:00:00 clear sky 32.257 32.257 32.257 45 2.94 m/h 0 %
11:00:00 clear sky 38.469 38.469 38.469 28 2.47 m/h 0 %
14:00:00 clear sky 42.469 42.469 42.469 20 1.04 m/h 0 %
17:00:00 clear sky 40.723 40.723 40.723 21 3.01 m/h 0 %
20:00:00 clear sky 33.650 33.650 33.650 38 3.86 m/h 0 %
23:00:00 clear sky 31.669 31.669 31.669 49 3.88 m/h 0 %
25-Aug-2019 (Sun)
02:00:00 clear sky 30.331 30.331 30.331 55 3.12 m/h 0 %
05:00:00 clear sky 29.057 29.057 29.057 58 2.84 m/h 0 %
08:00:00 clear sky 31.614 31.614 31.614 53 4.7 m/h 0 %
11:00:00 clear sky 37.816 37.816 37.816 32 3.18 m/h 0 %
14:00:00 clear sky 41.450 41.450 41.450 23 2.21 m/h 0 %
17:00:00 clear sky 40.650 40.650 40.650 24 4.22 m/h 0 %
20:00:00 clear sky 33.681 33.681 33.681 48 5.12 m/h 0 %
23:00:00 clear sky 31.411 31.411 31.411 59 5.98 m/h 0 %
26-Aug-2019 (Mon)
02:00:00 clear sky 29.265 29.265 29.265 68 5.21 m/h 0 %
05:00:00 clear sky 27.450 27.450 27.450 73 4.06 m/h 0 %
08:00:00 clear sky 29.467 29.467 29.467 66 4.94 m/h 0 %
11:00:00 clear sky 36.772 36.772 36.772 41 5.12 m/h 0 %
14:00:00 scattered clouds 39.784 39.784 39.784 31 4.25 m/h 0 %
17:00:00 few clouds 39.220 39.220 39.220 30 4.19 m/h 0 %
20:00:00 clear sky 33.072 33.072 33.072 47 4.11 m/h 0 %
23:00:00 clear sky 30.514 30.514 30.514 58 2.62 m/h 0 %
27-Aug-2019 (Tue)
02:00:00 broken clouds 29.516 29.516 29.516 64 2.32 m/h 0 %
05:00:00 overcast clouds 28.850 28.850 28.850 66 2.4 m/h 0 %
08:00:00 few clouds 32.835 32.835 32.835 52 2.57 m/h 0 %
11:00:00 scattered clouds 37.836 37.836 37.836 36 1.69 m/h 0 %
14:00:00 broken clouds 40.236 40.236 40.236 28 2.45 m/h 0 %
17:00:00 broken clouds 39.765 39.765 39.765 26 2.68 m/h 0 %
20:00:00 scattered clouds 33.850 33.850 33.850 45 4.94 m/h 0 %
23:00:00 few clouds 31.950 31.950 31.950 54 3.38 m/h 0 %
28-Aug-2019 (Wed)
02:00:00 clear sky 30.857 30.857 30.857 59 2.48 m/h 0 %
05:00:00 scattered clouds 31.272 31.272 31.272 59 2.02 m/h 0 %

Famous Cities (61)